Time;durP1;ratioP1;P1;durP2;ratioP2;P2;SDS_P1;SDS_P2;PMS_P1;PMS_P2;Temp;Humidity;BMP_temperature;BMP_pressure;BME280_temperature;BME280_humidity;BME280_pressure;Samples;Min_cycle;Max_cycle;Signal;HPM_P1;HPM_P2
2022/05/17 00:00:42;;;;;;;;;;;;;;;;;;5079064;28;19915;-58
2022/05/17 00:03:08;;;;;;;;;;;;;;;;;;5078477;28;20412;-58
2022/05/17 00:05:34;;;;;;;;;;;;;;;;;;5088675;28;19953;-59
2022/05/17 00:08:00;;;;;;;;;;;;;;;;;;5080674;28;19962;-59
2022/05/17 00:10:26;;;;;;;;;;;;;;;;;;5066049;28;19908;-58
2022/05/17 00:12:53;;;;;;;;;;;;;;;;;;5062494;28;19917;-57
2022/05/17 00:15:19;;;;;;;;;;;;;;;;;;5067849;28;20415;-57
2022/05/17 00:17:45;;;;;;;;;;;;;;;;;;5069157;28;19905;-58
2022/05/17 00:20:11;;;;;;;;;;;;;;;;;;5069593;28;19900;-57
2022/05/17 00:22:37;;;;;;;;;;;;;;;;;;5067824;28;19913;-57
2022/05/17 00:25:03;;;;;;;;;;;;;;;;;;5065635;28;20015;-57
2022/05/17 00:27:29;;;;;;;;;;;;;;;;;;5069844;28;19904;-57
2022/05/17 00:29:55;;;;;;;;;;;;;;;;;;5069197;28;19995;-57
2022/05/17 00:32:21;;;;;;;;;;;;;;;;;;5068462;28;20003;-57
2022/05/17 00:34:48;;;;;;;;;;;;;;;;;;5067300;28;19908;-57
2022/05/17 00:37:14;;;;;;;;;;;;;;;;;;5069485;28;19931;-57
2022/05/17 00:39:40;;;;;;;;;;;;;;;;;;5068889;28;19911;-57
2022/05/17 00:42:06;;;;;;;;;;;;;;;;;;5069072;28;20367;-57
2022/05/17 00:44:44;;;;;;;;;;;;;;;;;;5067959;28;19908;-57
2022/05/17 00:47:10;;;;;;;;;;;;;;;;;;5069047;28;19904;-57
2022/05/17 00:49:36;;;;;;;;;;;;;;;;;;5068527;28;20000;-57
2022/05/17 00:52:02;;;;;;;;;;;;;;;;;;5066794;28;19931;-58
2022/05/17 00:54:28;;;;;;;;;;;;;;;;;;5089608;28;19925;-57
2022/05/17 00:56:54;;;;;;;;;;;;;;;;;;5086043;28;19912;-57
2022/05/17 00:59:20;;;;;;;;;;;;;;;;;;5068641;28;19911;-57
2022/05/17 01:01:46;;;;;;;;;;;;;;;;;;5067512;28;20009;-57
2022/05/17 01:04:12;;;;;;;;;;;;;;;;;;5067096;28;19935;-57
2022/05/17 01:06:38;;;;;;;;;;;;;;;;;;5068545;28;19909;-57
2022/05/17 01:09:04;;;;;;;;;;;;;;;;;;5067674;28;20093;-57
2022/05/17 01:11:30;;;;;;;;;;;;;;;;;;5068200;28;19905;-57
2022/05/17 01:16:40;;;;;;;;;;;;;;;;;;5047889;28;20008;-57
2022/05/17 01:19:06;;;;;;;;;;;;;;;;;;5048693;28;19940;-57
2022/05/17 01:21:32;;;;;;;;;;;;;;;;;;5048112;28;20442;-57
2022/05/17 01:23:58;;;;;;;;;;;;;;;;;;5048568;28;19908;-57
2022/05/17 01:26:24;;;;;;;;;;;;;;;;;;5068103;28;20003;-58
2022/05/17 01:28:50;;;;;;;;;;;;;;;;;;5067928;28;19909;-57
2022/05/17 01:31:16;;;;;;;;;;;;;;;;;;5068513;28;19904;-57
2022/05/17 01:33:42;;;;;;;;;;;;;;;;;;5067797;28;19954;-57
2022/05/17 01:36:07;;;;;;;;;;;;;;;;;;5067086;28;19940;-57
2022/05/17 01:38:33;;;;;;;;;;;;;;;;;;5067845;28;19908;-57
2022/05/17 01:40:59;;;;;;;;;;;;;;;;;;5067817;28;19908;-57
2022/05/17 01:43:25;;;;;;;;;;;;;;;;;;5067933;28;19908;-57
2022/05/17 01:45:51;;;;;;;;;;;;;;;;;;5066125;28;19919;-57
2022/05/17 01:48:17;;;;;;;;;;;;;;;;;;5066702;28;19913;-57
2022/05/17 01:50:43;;;;;;;;;;;;;;;;;;5066551;28;19910;-57
2022/05/17 01:53:09;;;;;;;;;;;;;;;;;;5067500;28;19966;-57
2022/05/17 01:55:35;;;;;;;;;;;;;;;;;;5065127;28;19939;-57
2022/05/17 01:58:01;;;;;;;;;;;;;;;;;;5067421;28;19940;-57
2022/05/17 02:00:27;;;;;;;;;;;;;;;;;;5067432;28;19904;-57
2022/05/17 02:02:53;;;;;;;;;;;;;;;;;;5066290;28;19912;-57
2022/05/17 02:05:19;;;;;;;;;;;;;;;;;;5067214;28;19913;-57
2022/05/17 02:07:45;;;;;;;;;;;;;;;;;;5067781;28;20433;-57
2022/05/17 02:10:11;;;;;;;;;;;;;;;;;;5065662;28;19972;-57
2022/05/17 02:12:37;;;;;;;;;;;;;;;;;;5066908;28;19904;-57
2022/05/17 02:15:03;;;;;;;;;;;;;;;;;;5065714;28;19936;-57
2022/05/17 02:17:28;;;;;;;;;;;;;;;;;;5067070;28;19908;-57
2022/05/17 02:19:54;;;;;;;;;;;;;;;;;;5067456;28;19912;-57
2022/05/17 02:22:22;;;;;;;;;;;;;;;;;;5067388;28;19935;-57
2022/05/17 02:24:48;;;;;;;;;;;;;;;;;;5066265;28;19908;-57
2022/05/17 02:27:14;;;;;;;;;;;;;;;;;;5067212;28;20509;-57
2022/05/17 02:29:39;;;;;;;;;;;;;;;;;;5065645;28;19919;-57
2022/05/17 02:32:05;;;;;;;;;;;;;;;;;;5066823;28;19904;-57
2022/05/17 02:34:32;;;;;;;;;;;;;;;;;;5066697;28;19905;-57
2022/05/17 02:36:58;;;;;;;;;;;;;;;;;;5066009;28;19913;-57
2022/05/17 02:39:24;;;;;;;;;;;;;;;;;;5066934;28;20015;-57
2022/05/17 02:41:50;;;;;;;;;;;;;;;;;;5066445;28;19953;-57
2022/05/17 02:44:16;;;;;;;;;;;;;;;;;;5067430;28;19905;-57
2022/05/17 02:46:42;;;;;;;;;;;;;;;;;;5064125;28;19909;-57
2022/05/17 02:49:08;;;;;;;;;;;;;;;;;;5066026;28;19915;-57
2022/05/17 02:51:34;;;;;;;;;;;;;;;;;;5066557;28;20034;-57
2022/05/17 02:54:00;;;;;;;;;;;;;;;;;;5066737;28;19994;-57
2022/05/17 02:56:26;;;;;;;;;;;;;;;;;;5065302;28;20011;-57
2022/05/17 02:58:52;;;;;;;;;;;;;;;;;;5066062;28;19912;-57
2022/05/17 03:01:18;;;;;;;;;;;;;;;;;;5067133;28;19911;-57
2022/05/17 03:03:44;;;;;;;;;;;;;;;;;;5066712;28;19928;-57
2022/05/17 03:06:10;;;;;;;;;;;;;;;;;;5067558;28;19939;-57
2022/05/17 03:08:36;;;;;;;;;;;;;;;;;;5072714;28;19904;-57
2022/05/17 03:11:02;;;;;;;;;;;;;;;;;;5073103;28;19900;-57
2022/05/17 03:13:27;;;;;;;;;;;;;;;;;;5073200;28;19908;-57
2022/05/17 03:15:53;;;;;;;;;;;;;;;;;;5071187;28;19982;-57
2022/05/17 03:18:19;;;;;;;;;;;;;;;;;;5073089;28;19908;-57
2022/05/17 03:20:45;;;;;;;;;;;;;;;;;;5073197;28;19908;-57
2022/05/17 03:23:11;;;;;;;;;;;;;;;;;;5071778;28;19913;-57
2022/05/17 03:25:37;;;;;;;;;;;;;;;;;;5071685;28;19908;-57
2022/05/17 03:28:03;;;;;;;;;;;;;;;;;;5073242;28;19911;-57
2022/05/17 03:30:30;;;;;;;;;;;;;;;;;;5072560;28;19908;-57
2022/05/17 03:32:56;;;;;;;;;;;;;;;;;;5073340;28;19905;-57
2022/05/17 03:35:22;;;;;;;;;;;;;;;;;;5072632;28;19912;-57
2022/05/17 03:37:48;;;;;;;;;;;;;;;;;;5072430;28;20315;-57
2022/05/17 03:40:14;;;;;;;;;;;;;;;;;;5072973;28;19904;-57
2022/05/17 03:42:40;;;;;;;;;;;;;;;;;;5072541;28;19916;-57
2022/05/17 03:45:06;;;;;;;;;;;;;;;;;;5072824;28;19957;-57
2022/05/17 03:47:33;;;;;;;;;;;;;;;;;;5072328;28;19958;-57
2022/05/17 03:49:59;;;;;;;;;;;;;;;;;;5070732;28;20585;-57
2022/05/17 03:52:25;;;;;;;;;;;;;;;;;;5072452;28;19908;-57
2022/05/17 03:54:50;;;;;;;;;;;;;;;;;;5071815;28;19940;-57
2022/05/17 03:57:16;;;;;;;;;;;;;;;;;;5073018;28;19923;-57
2022/05/17 03:59:42;;;;;;;;;;;;;;;;;;5071471;28;19912;-57
2022/05/17 04:02:08;;;;;;;;;;;;;;;;;;5070719;28;19908;-57
2022/05/17 04:04:35;;;;;;;;;;;;;;;;;;5070540;28;20510;-57
2022/05/17 04:07:01;;;;;;;;;;;;;;;;;;5072642;28;19954;-57
2022/05/17 04:09:27;;;;;;;;;;;;;;;;;;5070479;28;20389;-57
2022/05/17 04:11:53;;;;;;;;;;;;;;;;;;5072643;28;20029;-57
2022/05/17 04:14:18;;;;;;;;;;;;;;;;;;5073153;28;19904;-57
2022/05/17 04:16:44;;;;;;;;;;;;;;;;;;5072993;28;19913;-57
2022/05/17 04:19:12;;;;;;;;;;;;;;;;;;5066901;28;19994;-57
2022/05/17 04:21:38;;;;;;;;;;;;;;;;;;5067971;28;19914;-57
2022/05/17 04:24:04;;;;;;;;;;;;;;;;;;5069266;28;20024;-57
2022/05/17 04:26:31;;;;;;;;;;;;;;;;;;5068939;28;19961;-56
2022/05/17 04:28:57;;;;;;;;;;;;;;;;;;5067981;28;19946;-56
2022/05/17 04:31:23;;;;;;;;;;;;;;;;;;5066689;28;19954;-56
2022/05/17 04:33:50;;;;;;;;;;;;;;;;;;5068982;28;19908;-56
2022/05/17 04:36:16;;;;;;;;;;;;;;;;;;5069499;28;19912;-56
2022/05/17 04:38:42;;;;;;;;;;;;;;;;;;5068696;28;20420;-56
2022/05/17 04:41:08;;;;;;;;;;;;;;;;;;5068102;28;19904;-56
2022/05/17 04:43:34;;;;;;;;;;;;;;;;;;5068671;28;19940;-56
2022/05/17 04:45:59;;;;;;;;;;;;;;;;;;5068663;28;19908;-55
2022/05/17 04:48:25;;;;;;;;;;;;;;;;;;5068556;28;19970;-56
2022/05/17 04:50:51;;;;;;;;;;;;;;;;;;5067483;28;19974;-56
2022/05/17 04:53:17;;;;;;;;;;;;;;;;;;5077959;28;19997;-56
2022/05/17 04:55:43;;;;;;;;;;;;;;;;;;5068587;28;19980;-55
2022/05/17 04:58:09;;;;;;;;;;;;;;;;;;5067714;28;19920;-56
2022/05/17 05:00:35;;;;;;;;;;;;;;;;;;5066808;28;19917;-57
2022/05/17 05:03:01;;;;;;;;;;;;;;;;;;5068443;28;19908;-56
2022/05/17 05:05:27;;;;;;;;;;;;;;;;;;5068292;28;19955;-56
2022/05/17 05:07:53;;;;;;;;;;;;;;;;;;5068486;28;20382;-56
2022/05/17 05:10:19;;;;;;;;;;;;;;;;;;5065702;28;19954;-56
2022/05/17 05:12:45;;;;;;;;;;;;;;;;;;5068495;28;19912;-56
2022/05/17 05:15:12;;;;;;;;;;;;;;;;;;5066716;28;19951;-57
2022/05/17 05:17:38;;;;;;;;;;;;;;;;;;5067690;28;19909;-57
2022/05/17 05:20:04;;;;;;;;;;;;;;;;;;5066586;28;19913;-57
2022/05/17 05:22:30;;;;;;;;;;;;;;;;;;5067698;28;19958;-57
2022/05/17 05:24:56;;;;;;;;;;;;;;;;;;5066196;28;19912;-57
2022/05/17 05:27:21;;;;;;;;;;;;;;;;;;5067550;28;19915;-56
2022/05/17 05:29:47;;;;;;;;;;;;;;;;;;5066850;28;19908;-56
2022/05/17 05:32:13;;;;;;;;;;;;;;;;;;5064736;28;19904;-56
2022/05/17 05:34:39;;;;;;;;;;;;;;;;;;5068164;28;19970;-57
2022/05/17 05:37:05;;;;;;;;;;;;;;;;;;5068920;28;19923;-57
2022/05/17 05:39:32;;;;;;;;;;;;;;;;;;5066858;28;19947;-57
2022/05/17 05:41:58;;;;;;;;;;;;;;;;;;5065880;28;19908;-56
2022/05/17 05:44:24;;;;;;;;;;;;;;;;;;5050919;28;20359;-56
2022/05/17 05:46:50;;;;;;;;;;;;;;;;;;5061724;28;19926;-56
2022/05/17 05:49:16;;;;;;;;;;;;;;;;;;5066323;28;19916;-56
2022/05/17 05:51:42;;;;;;;;;;;;;;;;;;5061859;28;19909;-57
2022/05/17 05:54:08;;;;;;;;;;;;;;;;;;5048472;28;19912;-56
2022/05/17 05:56:34;;;;;;;;;;;;;;;;;;5062329;28;19912;-56
2022/05/17 05:59:00;;;;;;;;;;;;;;;;;;5067835;28;19919;-56
2022/05/17 06:01:26;;;;;;;;;;;;;;;;;;5067733;28;19926;-56
2022/05/17 06:03:52;;;;;;;;;;;;;;;;;;5066586;28;19939;-56
2022/05/17 06:06:18;;;;;;;;;;;;;;;;;;5067819;28;20344;-57
2022/05/17 06:08:44;;;;;;;;;;;;;;;;;;5066803;28;19935;-56
2022/05/17 06:11:10;;;;;;;;;;;;;;;;;;5066977;28;19955;-56
2022/05/17 06:13:36;;;;;;;;;;;;;;;;;;5067058;28;19908;-56
2022/05/17 06:16:02;;;;;;;;;;;;;;;;;;5067454;28;19915;-56
2022/05/17 06:18:28;;;;;;;;;;;;;;;;;;5067303;28;19904;-56
2022/05/17 06:20:54;;;;;;;;;;;;;;;;;;5067114;28;20418;-56
2022/05/17 06:23:20;;;;;;;;;;;;;;;;;;5067173;28;19919;-56
2022/05/17 06:25:46;;;;;;;;;;;;;;;;;;5067816;28;20317;-56
2022/05/17 06:28:12;;;;;;;;;;;;;;;;;;5066909;28;19905;-57
2022/05/17 06:30:38;;;;;;;;;;;;;;;;;;5066691;28;19908;-57
2022/05/17 06:33:04;;;;;;;;;;;;;;;;;;5067169;28;19954;-56
2022/05/17 06:35:30;;;;;;;;;;;;;;;;;;5066829;28;20023;-56
2022/05/17 06:37:56;;;;;;;;;;;;;;;;;;5067139;28;19908;-56
2022/05/17 06:40:22;;;;;;;;;;;;;;;;;;5066406;28;19916;-56
2022/05/17 06:42:48;;;;;;;;;;;;;;;;;;5066889;28;19919;-56
2022/05/17 06:45:14;;;;;;;;;;;;;;;;;;5066741;28;20403;-57
2022/05/17 06:47:40;;;;;;;;;;;;;;;;;;5066822;28;19909;-57
2022/05/17 06:50:06;;;;;;;;;;;;;;;;;;5067024;28;19962;-56
2022/05/17 06:52:32;;;;;;;;;;;;;;;;;;5067084;28;20053;-56
2022/05/17 06:54:58;;;;;;;;;;;;;;;;;;5067156;28;19961;-56
2022/05/17 06:57:24;;;;;;;;;;;;;;;;;;5063692;28;20168;-56
2022/05/17 06:59:50;;;;;;;;;;;;;;;;;;5054575;28;19908;-56
2022/05/17 07:02:16;;;;;;;;;;;;;;;;;;5046749;28;19904;-56
2022/05/17 07:04:42;;;;;;;;;;;;;;;;;;5065607;28;19957;-56
2022/05/17 07:07:08;;;;;;;;;;;;;;;;;;5082107;28;19908;-56
2022/05/17 07:09:34;;;;;;;;;;;;;;;;;;5065315;28;19912;-56
2022/05/17 07:14:45;;;;;;;;;;;;;;;;;;5063492;28;20323;-56
2022/05/17 07:17:11;;;;;;;;;;;;;;;;;;5047807;28;19905;-56
2022/05/17 07:19:36;;;;;;;;;;;;;;;;;;5051552;28;19908;-56
2022/05/17 07:22:02;;;;;;;;;;;;;;;;;;5066405;28;19912;-55
2022/05/17 07:24:29;;;;;;;;;;;;;;;;;;5066119;28;20036;-56
2022/05/17 07:26:55;;;;;;;;;;;;;;;;;;5066508;28;19904;-56
2022/05/17 07:29:21;;;;;;;;;;;;;;;;;;5066541;28;19939;-56
2022/05/17 07:31:47;;;;;;;;;;;;;;;;;;5060917;28;20012;-56
2022/05/17 07:34:13;;;;;;;;;;;;;;;;;;5050392;28;19912;-56
2022/05/17 07:36:39;;;;;;;;;;;;;;;;;;5066281;28;19981;-56
2022/05/17 07:39:06;;;;;;;;;;;;;;;;;;5066399;28;19996;-56
2022/05/17 07:41:32;;;;;;;;;;;;;;;;;;5065966;28;19908;-56
2022/05/17 07:43:58;;;;;;;;;;;;;;;;;;5066004;28;19915;-56
2022/05/17 07:46:24;;;;;;;;;;;;;;;;;;5066694;28;19914;-57
2022/05/17 07:48:50;;;;;;;;;;;;;;;;;;5066944;28;19908;-56
2022/05/17 07:51:15;;;;;;;;;;;;;;;;;;5066313;28;19904;-56
2022/05/17 07:53:41;;;;;;;;;;;;;;;;;;5067203;28;19923;-56
2022/05/17 07:56:07;;;;;;;;;;;;;;;;;;5069870;28;19944;-56
2022/05/17 07:58:34;;;;;;;;;;;;;;;;;;5068949;28;19904;-56
2022/05/17 08:01:04;;;;;;;;;;;;;;;;;;5069800;28;19956;-56
2022/05/17 08:03:30;;;;;;;;;;;;;;;;;;5069489;28;19996;-56
2022/05/17 08:05:56;;;;;;;;;;;;;;;;;;5069892;28;19995;-56
2022/05/17 08:08:21;;;;;;;;;;;;;;;;;;5069675;28;19912;-56
2022/05/17 08:10:47;;;;;;;;;;;;;;;;;;5069404;28;19912;-56
2022/05/17 08:13:13;;;;;;;;;;;;;;;;;;5069547;28;19995;-56
2022/05/17 08:15:39;;;;;;;;;;;;;;;;;;5069105;28;19908;-56
2022/05/17 08:18:05;;;;;;;;;;;;;;;;;;5069606;28;19904;-56
2022/05/17 08:20:31;;;;;;;;;;;;;;;;;;5069248;28;19984;-56
2022/05/17 08:22:57;;;;;;;;;;;;;;;;;;5069272;28;20005;-56
2022/05/17 08:28:08;;;;;;;;;;;;;;;;;;5069038;28;19916;-56
2022/05/17 08:30:34;;;;;;;;;;;;;;;;;;5068887;28;19909;-56
2022/05/17 08:33:19;;;;;;;;;;;;;;;;;;5069375;28;19904;-56
2022/05/17 08:35:45;;;;;;;;;;;;;;;;;;5068623;28;19962;-56
2022/05/17 08:38:11;;;;;;;;;;;;;;;;;;5068937;28;19958;-56
2022/05/17 08:40:37;;;;;;;;;;;;;;;;;;5066909;28;19912;-57
2022/05/17 08:43:03;;;;;;;;;;;;;;;;;;5068953;28;19912;-56
2022/05/17 08:45:30;;;;;;;;;;;;;;;;;;5066962;28;19908;-56
2022/05/17 08:47:57;;;;;;;;;;;;;;;;;;5068812;28;19905;-56
2022/05/17 08:50:23;;;;;;;;;;;;;;;;;;5067441;28;20503;-56
2022/05/17 08:52:49;;;;;;;;;;;;;;;;;;5053625;28;19926;-56
2022/05/17 08:55:15;;;;;;;;;;;;;;;;;;5062590;28;19912;-56
2022/05/17 08:57:41;;;;;;;;;;;;;;;;;;5065773;28;19919;-57
2022/05/17 09:00:08;;;;;;;;;;;;;;;;;;5046988;28;19909;-57
2022/05/17 09:02:34;;;;;;;;;;;;;;;;;;5054315;28;19908;-56
2022/05/17 09:04:59;;;;;;;;;;;;;;;;;;5066466;28;20143;-57
2022/05/17 09:07:25;;;;;;;;;;;;;;;;;;5082285;28;19906;-57
2022/05/17 09:09:51;;;;;;;;;;;;;;;;;;5066952;28;19904;-55
2022/05/17 09:12:17;;;;;;;;;;;;;;;;;;5066624;28;19999;-56
2022/05/17 09:14:43;;;;;;;;;;;;;;;;;;5059501;28;19909;-55
2022/05/17 09:17:10;;;;;;;;;;;;;;;;;;5046796;28;19908;-56
2022/05/17 09:19:36;;;;;;;;;;;;;;;;;;5061759;28;19911;-56
2022/05/17 09:22:03;;;;;;;;;;;;;;;;;;5047241;28;19912;-56
2022/05/17 09:24:30;;;;;;;;;;;;;;;;;;5046639;28;20022;-55
2022/05/17 09:26:56;;;;;;;;;;;;;;;;;;5046901;28;19909;-56
2022/05/17 09:29:22;;;;;;;;;;;;;;;;;;5046539;28;20335;-56
2022/05/17 09:31:49;;;;;;;;;;;;;;;;;;5046627;28;19909;-56
2022/05/17 09:34:15;;;;;;;;;;;;;;;;;;5046607;28;19905;-56
2022/05/17 09:36:42;;;;;;;;;;;;;;;;;;5046260;28;19909;-56
2022/05/17 09:39:08;;;;;;;;;;;;;;;;;;5064865;28;19915;-56
2022/05/17 09:41:35;;;;;;;;;;;;;;;;;;5066899;28;19962;-56
2022/05/17 09:44:01;;;;;;;;;;;;;;;;;;5067374;28;19908;-56
2022/05/17 09:46:27;;;;;;;;;;;;;;;;;;5066450;28;20293;-56
2022/05/17 09:54:24;;;;;;;;;;;;;;;;;;5065425;28;20014;-58
2022/05/17 09:56:52;;;;;;;;;;;;;;;;;;5065658;28;19982;-57
2022/05/17 09:59:19;;;;;;;;;;;;;;;;;;5065713;28;20500;-57
2022/05/17 10:01:45;;;;;;;;;;;;;;;;;;5065764;28;19999;-57
2022/05/17 10:04:11;;;;;;;;;;;;;;;;;;5065917;28;19908;-57
2022/05/17 10:06:37;;;;;;;;;;;;;;;;;;5065666;28;19915;-57
2022/05/17 10:09:03;;;;;;;;;;;;;;;;;;5066332;28;20379;-56
2022/05/17 10:11:29;;;;;;;;;;;;;;;;;;5065024;28;19908;-57
2022/05/17 10:13:56;;;;;;;;;;;;;;;;;;5065577;28;19908;-57
2022/05/17 10:16:22;;;;;;;;;;;;;;;;;;5079853;28;19987;-58
2022/05/17 10:18:48;;;;;;;;;;;;;;;;;;5065813;28;20549;-58
2022/05/17 10:21:14;;;;;;;;;;;;;;;;;;5065394;28;19912;-57
2022/05/17 10:23:41;;;;;;;;;;;;;;;;;;5065023;28;19940;-57
2022/05/17 10:26:06;;;;;;;;;;;;;;;;;;5065313;28;19905;-58
2022/05/17 10:28:33;;;;;;;;;;;;;;;;;;5065753;28;20017;-57
2022/05/17 10:31:01;;;;;;;;;;;;;;;;;;5065140;28;20338;-58
2022/05/17 10:33:26;;;;;;;;;;;;;;;;;;5065262;28;19913;-57
2022/05/17 10:35:52;;;;;;;;;;;;;;;;;;5065365;28;20443;-57
2022/05/17 10:38:18;;;;;;;;;;;;;;;;;;5065460;28;19908;-57
2022/05/17 10:40:46;;;;;;;;;;;;;;;;;;5065120;28;20334;-57
2022/05/17 10:43:12;;;;;;;;;;;;;;;;;;5065622;28;19909;-56
2022/05/17 10:45:39;;;;;;;;;;;;;;;;;;5064724;28;19920;-57
2022/05/17 10:48:05;;;;;;;;;;;;;;;;;;5078304;28;19964;-57
2022/05/17 10:50:31;;;;;;;;;;;;;;;;;;5084380;28;20371;-57
2022/05/17 10:52:57;;;;;;;;;;;;;;;;;;5064879;28;19904;-56
2022/05/17 10:55:23;;;;;;;;;;;;;;;;;;5065024;28;20305;-57
2022/05/17 10:57:48;;;;;;;;;;;;;;;;;;5065814;28;19908;-57
2022/05/17 11:00:18;;;;;;;;;;;;;;;;;;5065749;28;19934;-57
2022/05/17 11:02:45;;;;;;;;;;;;;;;;;;5064643;28;19916;-56
2022/05/17 11:05:12;;;;;;;;;;;;;;;;;;5065565;28;20286;-57
2022/05/17 11:07:38;;;;;;;;;;;;;;;;;;5064611;28;19924;-57
2022/05/17 11:10:04;;;;;;;;;;;;;;;;;;5064672;28;20019;-56
2022/05/17 11:12:30;;;;;;;;;;;;;;;;;;5064596;28;19935;-57
2022/05/17 11:14:56;;;;;;;;;;;;;;;;;;5065195;28;19904;-57
2022/05/17 11:17:22;;;;;;;;;;;;;;;;;;5064804;28;19905;-57
2022/05/17 11:19:48;;;;;;;;;;;;;;;;;;5065469;28;19908;-57
2022/05/17 11:22:14;;;;;;;;;;;;;;;;;;5064594;28;20272;-57
2022/05/17 11:24:41;;;;;;;;;;;;;;;;;;5064617;28;20571;-57
2022/05/17 11:27:08;;;;;;;;;;;;;;;;;;5065495;28;19912;-58
2022/05/17 11:29:35;;;;;;;;;;;;;;;;;;5068571;28;20322;-57
2022/05/17 11:32:02;;;;;;;;;;;;;;;;;;5068727;28;19908;-57
2022/05/17 11:34:28;;;;;;;;;;;;;;;;;;5068342;28;20284;-57
2022/05/17 11:36:55;;;;;;;;;;;;;;;;;;5068884;28;19915;-57
2022/05/17 11:39:21;;;;;;;;;;;;;;;;;;5067364;28;20461;-57
2022/05/17 11:41:48;;;;;;;;;;;;;;;;;;5069007;28;19944;-57
2022/05/17 11:44:14;;;;;;;;;;;;;;;;;;5068726;28;19947;-57
2022/05/17 11:46:40;;;;;;;;;;;;;;;;;;5066917;28;19908;-57
2022/05/17 11:49:06;;;;;;;;;;;;;;;;;;5068432;28;20309;-57
2022/05/17 11:51:35;;;;;;;;;;;;;;;;;;5067905;28;19965;-56
2022/05/17 11:54:00;;;;;;;;;;;;;;;;;;5068671;28;20432;-55
2022/05/17 11:56:32;;;;;;;;;;;;;;;;;;5067977;28;19930;-56
2022/05/17 11:58:58;;;;;;;;;;;;;;;;;;5068330;28;20294;-56
2022/05/17 12:01:25;;;;;;;;;;;;;;;;;;5067915;28;19914;-56
2022/05/17 12:03:51;;;;;;;;;;;;;;;;;;5068035;28;19912;-56
2022/05/17 12:06:17;;;;;;;;;;;;;;;;;;5069085;28;19904;-56
2022/05/17 12:08:44;;;;;;;;;;;;;;;;;;5067723;28;19912;-56
2022/05/17 12:11:11;;;;;;;;;;;;;;;;;;5068018;28;19912;-56
2022/05/17 12:13:36;;;;;;;;;;;;;;;;;;5067912;28;19905;-56
2022/05/17 12:16:02;;;;;;;;;;;;;;;;;;5067930;28;19908;-55
2022/05/17 12:18:28;;;;;;;;;;;;;;;;;;5067930;28;19932;-56
2022/05/17 12:20:54;;;;;;;;;;;;;;;;;;5067544;28;20402;-56
2022/05/17 12:23:20;;;;;;;;;;;;;;;;;;5067407;28;19920;-56
2022/05/17 12:25:47;;;;;;;;;;;;;;;;;;5068412;28;19908;-56
2022/05/17 12:28:13;;;;;;;;;;;;;;;;;;5066930;28;20211;-56
2022/05/17 12:30:54;;;;;;;;;;;;;;;;;;5067558;28;20320;-55
2022/05/17 12:33:20;;;;;;;;;;;;;;;;;;5059399;28;19908;-56
2022/05/17 12:35:46;;;;;;;;;;;;;;;;;;5048007;28;20299;-55
2022/05/17 12:43:42;;;;;;;;;;;;;;;;;;5047128;28;20525;-55
2022/05/17 12:46:07;;;;;;;;;;;;;;;;;;5061617;28;19904;-57
2022/05/17 12:48:34;;;;;;;;;;;;;;;;;;5066571;28;19918;-57
2022/05/17 12:51:00;;;;;;;;;;;;;;;;;;5061813;28;19978;-57
2022/05/17 12:53:26;;;;;;;;;;;;;;;;;;5048423;28;19948;-58
2022/05/17 12:55:52;;;;;;;;;;;;;;;;;;5060464;28;19993;-58
2022/05/17 12:58:18;;;;;;;;;;;;;;;;;;5068996;28;19916;-57
2022/05/17 13:00:44;;;;;;;;;;;;;;;;;;5067844;28;19916;-58
2022/05/17 13:03:10;;;;;;;;;;;;;;;;;;5068259;28;20166;-57
2022/05/17 13:05:36;;;;;;;;;;;;;;;;;;5068359;28;19904;-57
2022/05/17 13:08:03;;;;;;;;;;;;;;;;;;5068747;28;19919;-57
2022/05/17 13:10:29;;;;;;;;;;;;;;;;;;5068260;28;19904;-58
2022/05/17 13:12:55;;;;;;;;;;;;;;;;;;5068075;28;19916;-59
2022/05/17 13:15:22;;;;;;;;;;;;;;;;;;5069477;28;19908;-59
2022/05/17 13:17:48;;;;;;;;;;;;;;;;;;5069035;28;20358;-58
2022/05/17 13:20:14;;;;;;;;;;;;;;;;;;5068096;28;20015;-58
2022/05/17 13:22:40;;;;;;;;;;;;;;;;;;5067977;28;19912;-59
2022/05/17 13:25:09;;;;;;;;;;;;;;;;;;5068250;28;19904;-59
2022/05/17 13:27:36;;;;;;;;;;;;;;;;;;5068070;28;19947;-58
2022/05/17 13:30:02;;;;;;;;;;;;;;;;;;5068213;28;20335;-58
2022/05/17 13:32:29;;;;;;;;;;;;;;;;;;5068034;28;19931;-58
2022/05/17 13:34:55;;;;;;;;;;;;;;;;;;5068198;28;19943;-59
2022/05/17 13:37:23;;;;;;;;;;;;;;;;;;5068232;28;19968;-59
2022/05/17 13:39:49;;;;;;;;;;;;;;;;;;5068671;28;19949;-58
2022/05/17 13:42:15;;;;;;;;;;;;;;;;;;5067931;28;20383;-59
2022/05/17 13:44:41;;;;;;;;;;;;;;;;;;5079111;28;20006;-59
2022/05/17 13:47:07;;;;;;;;;;;;;;;;;;5086120;28;19910;-59
2022/05/17 13:49:33;;;;;;;;;;;;;;;;;;5067090;28;19908;-59
2022/05/17 13:51:59;;;;;;;;;;;;;;;;;;5063990;28;19908;-59
2022/05/17 13:54:25;;;;;;;;;;;;;;;;;;5064785;28;19916;-59
2022/05/17 13:56:52;;;;;;;;;;;;;;;;;;5062217;28;19930;-59
2022/05/17 13:59:18;;;;;;;;;;;;;;;;;;5062863;28;20264;-60
2022/05/17 14:01:45;;;;;;;;;;;;;;;;;;5066203;28;19923;-59
2022/05/17 14:04:12;;;;;;;;;;;;;;;;;;5065946;28;20363;-59
2022/05/17 14:06:38;;;;;;;;;;;;;;;;;;5065628;28;19911;-59
2022/05/17 14:11:51;;;;;;;;;;;;;;;;;;5066243;28;19958;-59
2022/05/17 14:14:18;;;;;;;;;;;;;;;;;;5066773;28;19905;-59
2022/05/17 14:16:44;;;;;;;;;;;;;;;;;;5065631;28;20013;-59
2022/05/17 14:19:10;;;;;;;;;;;;;;;;;;5065853;28;19908;-59
2022/05/17 14:21:36;;;;;;;;;;;;;;;;;;5065141;28;20295;-59
2022/05/17 14:24:03;;;;;;;;;;;;;;;;;;5065638;28;19951;-59
2022/05/17 14:26:29;;;;;;;;;;;;;;;;;;5065503;28;19931;-59
2022/05/17 14:28:56;;;;;;;;;;;;;;;;;;5065505;28;19912;-59
2022/05/17 14:31:22;;;;;;;;;;;;;;;;;;5065124;28;19916;-59
2022/05/17 14:33:49;;;;;;;;;;;;;;;;;;5066060;28;19905;-59
2022/05/17 14:36:15;;;;;;;;;;;;;;;;;;5065587;28;19919;-59
2022/05/17 14:38:41;;;;;;;;;;;;;;;;;;5063918;28;19908;-59
2022/05/17 14:41:06;;;;;;;;;;;;;;;;;;5065448;28;19904;-59
2022/05/17 14:43:32;;;;;;;;;;;;;;;;;;5065361;28;19908;-59
2022/05/17 14:45:58;;;;;;;;;;;;;;;;;;5065356;28;19954;-60
2022/05/17 14:48:24;;;;;;;;;;;;;;;;;;5065120;28;19912;-60
2022/05/17 14:50:50;;;;;;;;;;;;;;;;;;5066042;28;20014;-59
2022/05/17 14:53:16;;;;;;;;;;;;;;;;;;5065988;28;19922;-59
2022/05/17 14:55:42;;;;;;;;;;;;;;;;;;5064940;28;19908;-59
2022/05/17 14:58:09;;;;;;;;;;;;;;;;;;5065045;28;19911;-59
2022/05/17 15:00:35;;;;;;;;;;;;;;;;;;5064980;28;19926;-59
2022/05/17 15:03:01;;;;;;;;;;;;;;;;;;5064741;28;20322;-59
2022/05/17 15:05:27;;;;;;;;;;;;;;;;;;5065173;28;19904;-59
2022/05/17 15:07:53;;;;;;;;;;;;;;;;;;5064915;28;19900;-59
2022/05/17 15:10:20;;;;;;;;;;;;;;;;;;5065844;28;19950;-59
2022/05/17 15:12:48;;;;;;;;;;;;;;;;;;5065330;28;19901;-59
2022/05/17 15:15:15;;;;;;;;;;;;;;;;;;5065044;28;20284;-59
2022/05/17 15:17:41;;;;;;;;;;;;;;;;;;5063988;28;20467;-59
2022/05/17 15:20:06;;;;;;;;;;;;;;;;;;5064407;28;19908;-59
2022/05/17 15:22:32;;;;;;;;;;;;;;;;;;5062361;28;20306;-59
2022/05/17 15:24:59;;;;;;;;;;;;;;;;;;5065749;28;19936;-59
2022/05/17 15:27:25;;;;;;;;;;;;;;;;;;5064582;28;20015;-59
2022/05/17 15:29:51;;;;;;;;;;;;;;;;;;5064570;28;20011;-60
2022/05/17 15:32:17;;;;;;;;;;;;;;;;;;5063620;28;19916;-59
2022/05/17 15:34:44;;;;;;;;;;;;;;;;;;5062882;28;19951;-59
2022/05/17 15:37:16;;;;;;;;;;;;;;;;;;5064727;28;19962;-60
2022/05/17 15:39:42;;;;;;;;;;;;;;;;;;5064878;28;20363;-60
2022/05/17 15:42:07;;;;;;;;;;;;;;;;;;5062821;28;19909;-59
2022/05/17 15:44:34;;;;;;;;;;;;;;;;;;5061615;28;19915;-59
2022/05/17 15:55:14;;;;;;;;;;;;;;;;;;5063122;28;19965;-59
2022/05/17 15:57:40;;;;;;;;;;;;;;;;;;5062598;28;20429;-59
2022/05/17 16:00:06;;;;;;;;;;;;;;;;;;5061133;28;19938;-59
2022/05/17 16:02:32;;;;;;;;;;;;;;;;;;5062494;28;19983;-59
2022/05/17 16:04:59;;;;;;;;;;;;;;;;;;5062817;28;19981;-59
2022/05/17 16:10:10;;;;;;;;;;;;;;;;;;5064136;28;19977;-59
2022/05/17 16:12:36;;;;;;;;;;;;;;;;;;5064136;28;19908;-59
2022/05/17 16:15:03;;;;;;;;;;;;;;;;;;5066660;28;20459;-59
2022/05/17 16:17:29;;;;;;;;;;;;;;;;;;5078146;28;19904;-59
2022/05/17 16:19:54;;;;;;;;;;;;;;;;;;5083652;28;20004;-59
2022/05/17 16:22:20;;;;;;;;;;;;;;;;;;5066827;28;20010;-59
2022/05/17 16:24:47;;;;;;;;;;;;;;;;;;5067641;28;19913;-59
2022/05/17 16:27:13;;;;;;;;;;;;;;;;;;5068049;28;19933;-59
2022/05/17 16:29:39;;;;;;;;;;;;;;;;;;5068023;28;20003;-59
2022/05/17 16:32:07;;;;;;;;;;;;;;;;;;5068125;28;19966;-59
2022/05/17 16:34:35;;;;;;;;;;;;;;;;;;5067985;28;19995;-59
2022/05/17 16:37:02;;;;;;;;;;;;;;;;;;5066071;28;19920;-59
2022/05/17 16:39:28;;;;;;;;;;;;;;;;;;5065766;28;19908;-59
2022/05/17 16:41:55;;;;;;;;;;;;;;;;;;5071613;28;20155;-57
2022/05/17 16:44:21;;;;;;;;;;;;;;;;;;5067382;28;20399;-57
2022/05/17 16:46:47;;;;;;;;;;;;;;;;;;5068270;28;19912;-57
2022/05/17 16:49:13;;;;;;;;;;;;;;;;;;5061829;28;19916;-57
2022/05/17 16:51:39;;;;;;;;;;;;;;;;;;5064356;28;19915;-58
2022/05/17 16:54:06;;;;;;;;;;;;;;;;;;5065570;28;19998;-57
2022/05/17 16:56:32;;;;;;;;;;;;;;;;;;5056941;28;19909;-57
2022/05/17 16:58:58;;;;;;;;;;;;;;;;;;5050281;28;20315;-57
2022/05/17 17:01:24;;;;;;;;;;;;;;;;;;5063855;28;19943;-58
2022/05/17 17:03:51;;;;;;;;;;;;;;;;;;5053887;28;19908;-57
2022/05/17 17:06:18;;;;;;;;;;;;;;;;;;5065370;28;20505;-57
2022/05/17 17:08:44;;;;;;;;;;;;;;;;;;5064562;28;20072;-57
2022/05/17 17:11:11;;;;;;;;;;;;;;;;;;5065413;28;20428;-57